Arago, OR

1:55 PM PDT on September 16, 2014 (GMT -0700)
Arago | Change Station
CLOSE
Current Station
Personal Weather Station
Location: Myrtle Point, OR
Elevation: 175 ft
Nearby Weather Stations

Elev 175 ft 43.09 °N, 124.20 °W | Updated 23 seconds ago

Clear
Clear
73.8 °F
Feels Like 77 °F
N
4.0
Wind Variable Wind from WNW
Gusts 10.0 mph

Today
High -- | Low -- °F
--% Chance of Precip.
Yesterday
High -- | Low -- °F
Precip. -- in
6:57 AM 7:24 PM
Last Quarter, 42% visible
Pressure 29.93 in
Visibility 10.0 miles
Clouds Clear
Heat Index 77 °F
Dew Point 60 °F
Humidity 61%
Rainfall 0.00 in
Snow Depth 0 in , 0 in , 0 in
UV 7 out of 12
Pollen 4.20 out of 12
Air Quality Not available.
Flu Activity Not available.
METAR KOTH 162035Z 26014KT 10SM CLR 21/14 A2993 RMK AO1

More Conditions Fewer Conditions

Pressure 29.93 in
Visibility 10.0 miles
Clouds Clear
Heat Index 77 °F
Dew Point 60 °F
Humidity 61%
Rainfall 0.00 in
Snow Depth 0 in , 0 in , 0 in
UV 7 out of 12
Pollen 4.20 out of 12
Air Quality Not available.
Flu Activity Not available.
METAR KOTH 162035Z 26014KT 10SM CLR 21/14 A2993 RMK AO1

More Conditions Fewer Conditions

10-Day Weather Forecast

Almanac

Astronomy

Sep. 16, 2014 Rise Set
Actual Time 6:57 AM PDT 7:24 PM PDT
Civil Twilight 6:28 AM PDT 7:53 PM PDT
Nautical Twilight 5:55 AM PDT 8:26 PM PDT
Astronomical Twilight 5:20 AM PDT 9:01 PM PDT
Moon 12:05 AM PDT 2:59 PM PDT
Length of Visible Light 13h 24m
Length of Day
12h 27m
Tomorrow will be 2m 54s shorter.
Last Quarter, 42% of the Moon is Illuminated
Today
Last Quarter
Sep 24
New
Oct 1
First Quarter
Oct 8
Full
Oct 15
Last Quarter

Today's Extremes

State Highs State Lows

Community

WunderPhotos

Upload Photos

1,753,882 photos uploaded!

Nearby

Snow Depth

Station Depth Elevation
Fourmile Lake 0 in 6000 ft
Lucky Strike 0 in 5050 ft
Sevenmile Marsh 0 in 6200 ft
Daly Lake 0 in 3600 ft
Arbuckle Mountain 1 in 5400 ft

Earthquake Activity

City Distance Mag. Time & Date
No recent earthquake activity has been reported nearby.
Minimum magnitude displayed is 2.5.

Coastal Water Temperatures

Place Temperature
Port Orford, OR 57.0 °F
Charleston, OR 53.1 °F
South Beach, OR 55.0 °F

Nearby Weather Stations